sensor_id;sensor_type;location;lat;lon;timestamp;P1;durP1;ratioP1;P2;durP2;ratioP2
61322;SDS011;47203;48.428;11.974;2023-04-20T00:00:00;8.15;;;6.32;;
61322;SDS011;47203;48.428;11.974;2023-04-20T00:02:13;6.65;;;5.95;;
61322;SDS011;47203;48.428;11.974;2023-04-20T00:04:21;7.60;;;6.00;;
61322;SDS011;47203;48.428;11.974;2023-04-20T00:06:25;8.50;;;5.93;;
61322;SDS011;47203;48.428;11.974;2023-04-20T00:08:33;7.10;;;5.60;;
61322;SDS011;47203;48.428;11.974;2023-04-20T00:10:38;7.32;;;5.20;;
61322;SDS011;47203;48.428;11.974;2023-04-20T00:12:43;7.90;;;6.05;;
61322;SDS011;47203;48.428;11.974;2023-04-20T00:14:47;8.00;;;5.93;;
61322;SDS011;47203;48.428;11.974;2023-04-20T00:16:52;6.93;;;5.28;;
61322;SDS011;47203;48.428;11.974;2023-04-20T00:18:58;6.18;;;5.57;;
61322;SDS011;47203;48.428;11.974;2023-04-20T00:21:06;6.93;;;5.82;;
61322;SDS011;47203;48.428;11.974;2023-04-20T00:23:11;9.15;;;6.32;;
61322;SDS011;47203;48.428;11.974;2023-04-20T00:25:16;7.25;;;5.53;;
61322;SDS011;47203;48.428;11.974;2023-04-20T00:27:21;7.80;;;5.65;;
61322;SDS011;47203;48.428;11.974;2023-04-20T00:29:25;9.38;;;6.25;;
61322;SDS011;47203;48.428;11.974;2023-04-20T00:31:31;7.18;;;5.80;;
61322;SDS011;47203;48.428;11.974;2023-04-20T00:33:36;8.57;;;5.45;;
61322;SDS011;47203;48.428;11.974;2023-04-20T00:35:41;9.05;;;5.65;;
61322;SDS011;47203;48.428;11.974;2023-04-20T00:37:48;7.43;;;5.90;;
61322;SDS011;47203;48.428;11.974;2023-04-20T00:39:53;7.55;;;5.75;;
61322;SDS011;47203;48.428;11.974;2023-04-20T00:42:02;8.50;;;5.97;;
61322;SDS011;47203;48.428;11.974;2023-04-20T00:44:07;7.40;;;5.53;;
61322;SDS011;47203;48.428;11.974;2023-04-20T00:46:14;7.47;;;5.60;;
61322;SDS011;47203;48.428;11.974;2023-04-20T00:48:20;8.07;;;6.22;;
61322;SDS011;47203;48.428;11.974;2023-04-20T00:50:25;7.55;;;5.72;;
61322;SDS011;47203;48.428;11.974;2023-04-20T00:52:30;7.47;;;5.47;;
61322;SDS011;47203;48.428;11.974;2023-04-20T00:54:38;7.00;;;5.32;;
61322;SDS011;47203;48.428;11.974;2023-04-20T00:56:43;6.97;;;5.75;;
61322;SDS011;47203;48.428;11.974;2023-04-20T00:58:49;7.03;;;5.68;;
61322;SDS011;47203;48.428;11.974;2023-04-20T01:00:54;7.15;;;5.70;;
61322;SDS011;47203;48.428;11.974;2023-04-20T01:02:58;6.95;;;5.72;;
61322;SDS011;47203;48.428;11.974;2023-04-20T01:05:04;7.70;;;6.10;;
61322;SDS011;47203;48.428;11.974;2023-04-20T01:07:09;8.85;;;5.85;;
61322;SDS011;47203;48.428;11.974;2023-04-20T01:09:14;7.60;;;5.65;;
61322;SDS011;47203;48.428;11.974;2023-04-20T01:11:22;6.72;;;5.78;;
61322;SDS011;47203;48.428;11.974;2023-04-20T01:13:27;7.68;;;6.03;;
61322;SDS011;47203;48.428;11.974;2023-04-20T01:15:32;8.10;;;5.65;;
61322;SDS011;47203;48.428;11.974;2023-04-20T01:17:37;6.43;;;5.15;;
61322;SDS011;47203;48.428;11.974;2023-04-20T01:19:42;7.88;;;6.20;;
61322;SDS011;47203;48.428;11.974;2023-04-20T01:21:48;8.40;;;6.43;;
61322;SDS011;47203;48.428;11.974;2023-04-20T01:23:55;7.07;;;5.28;;
61322;SDS011;47203;48.428;11.974;2023-04-20T01:26:04;7.55;;;5.60;;
61322;SDS011;47203;48.428;11.974;2023-04-20T01:28:09;9.00;;;6.22;;
61322;SDS011;47203;48.428;11.974;2023-04-20T01:30:15;6.95;;;5.53;;
61322;SDS011;47203;48.428;11.974;2023-04-20T01:32:19;8.00;;;5.60;;
61322;SDS011;47203;48.428;11.974;2023-04-20T01:34:24;7.13;;;5.82;;
61322;SDS011;47203;48.428;11.974;2023-04-20T01:36:29;6.78;;;5.40;;
61322;SDS011;47203;48.428;11.974;2023-04-20T01:38:34;7.60;;;6.40;;
61322;SDS011;47203;48.428;11.974;2023-04-20T01:40:42;7.10;;;6.10;;
61322;SDS011;47203;48.428;11.974;2023-04-20T01:42:47;8.02;;;6.13;;
61322;SDS011;47203;48.428;11.974;2023-04-20T01:44:52;7.10;;;6.03;;
61322;SDS011;47203;48.428;11.974;2023-04-20T01:46:56;8.35;;;6.18;;
61322;SDS011;47203;48.428;11.974;2023-04-20T01:49:02;9.55;;;7.15;;
61322;SDS011;47203;48.428;11.974;2023-04-20T01:51:06;9.88;;;6.15;;
61322;SDS011;47203;48.428;11.974;2023-04-20T01:53:12;6.82;;;5.50;;
61322;SDS011;47203;48.428;11.974;2023-04-20T01:55:20;8.25;;;5.95;;
61322;SDS011;47203;48.428;11.974;2023-04-20T01:57:28;7.53;;;5.63;;
61322;SDS011;47203;48.428;11.974;2023-04-20T01:59:33;6.95;;;5.85;;
61322;SDS011;47203;48.428;11.974;2023-04-20T02:01:38;7.70;;;5.75;;
61322;SDS011;47203;48.428;11.974;2023-04-20T02:03:43;8.07;;;6.07;;
61322;SDS011;47203;48.428;11.974;2023-04-20T02:05:50;10.23;;;7.38;;
61322;SDS011;47203;48.428;11.974;2023-04-20T02:07:55;8.48;;;7.07;;
61322;SDS011;47203;48.428;11.974;2023-04-20T02:09:59;8.45;;;7.18;;
61322;SDS011;47203;48.428;11.974;2023-04-20T02:12:04;9.25;;;7.28;;
61322;SDS011;47203;48.428;11.974;2023-04-20T02:14:15;10.95;;;7.90;;
61322;SDS011;47203;48.428;11.974;2023-04-20T02:16:21;9.38;;;7.38;;
61322;SDS011;47203;48.428;11.974;2023-04-20T02:18:26;10.50;;;7.70;;
61322;SDS011;47203;48.428;11.974;2023-04-20T02:20:33;12.15;;;9.15;;
61322;SDS011;47203;48.428;11.974;2023-04-20T02:22:38;10.65;;;8.35;;
61322;SDS011;47203;48.428;11.974;2023-04-20T02:24:43;11.63;;;9.20;;
61322;SDS011;47203;48.428;11.974;2023-04-20T02:26:48;11.93;;;8.93;;
61322;SDS011;47203;48.428;11.974;2023-04-20T02:28:53;10.30;;;9.13;;
61322;SDS011;47203;48.428;11.974;2023-04-20T02:31:02;11.35;;;8.70;;
61322;SDS011;47203;48.428;11.974;2023-04-20T02:33:07;11.10;;;9.15;;
61322;SDS011;47203;48.428;11.974;2023-04-20T02:35:12;11.48;;;9.07;;
61322;SDS011;47203;48.428;11.974;2023-04-20T02:37:17;12.35;;;9.68;;
61322;SDS011;47203;48.428;11.974;2023-04-20T02:39:22;12.27;;;8.93;;
61322;SDS011;47203;48.428;11.974;2023-04-20T02:41:28;12.00;;;9.43;;
61322;SDS011;47203;48.428;11.974;2023-04-20T02:43:34;12.32;;;9.52;;
61322;SDS011;47203;48.428;11.974;2023-04-20T02:45:40;11.02;;;8.98;;
61322;SDS011;47203;48.428;11.974;2023-04-20T02:47:48;11.18;;;8.90;;
61322;SDS011;47203;48.428;11.974;2023-04-20T02:49:52;12.63;;;9.63;;
61322;SDS011;47203;48.428;11.974;2023-04-20T02:51:58;11.63;;;9.63;;
61322;SDS011;47203;48.428;11.974;2023-04-20T02:54:03;14.02;;;10.60;;
61322;SDS011;47203;48.428;11.974;2023-04-20T02:56:09;13.63;;;10.30;;
61322;SDS011;47203;48.428;11.974;2023-04-20T02:58:20;12.65;;;10.40;;
61322;SDS011;47203;48.428;11.974;2023-04-20T03:00:46;12.80;;;9.85;;
61322;SDS011;47203;48.428;11.974;2023-04-20T03:02:53;15.15;;;10.23;;
61322;SDS011;47203;48.428;11.974;2023-04-20T03:04:59;14.70;;;10.93;;
61322;SDS011;47203;48.428;11.974;2023-04-20T03:07:13;13.73;;;10.35;;
61322;SDS011;47203;48.428;11.974;2023-04-20T03:09:19;20.48;;;14.30;;
61322;SDS011;47203;48.428;11.974;2023-04-20T03:11:38;17.92;;;13.05;;
61322;SDS011;47203;48.428;11.974;2023-04-20T03:13:46;17.75;;;10.82;;
61322;SDS011;47203;48.428;11.974;2023-04-20T03:15:51;14.27;;;11.18;;
61322;SDS011;47203;48.428;11.974;2023-04-20T03:18:19;13.57;;;9.95;;
61322;SDS011;47203;48.428;11.974;2023-04-20T03:20:25;13.70;;;9.75;;
61322;SDS011;47203;48.428;11.974;2023-04-20T03:22:30;14.65;;;11.30;;
61322;SDS011;47203;48.428;11.974;2023-04-20T03:24:36;12.43;;;10.13;;
61322;SDS011;47203;48.428;11.974;2023-04-20T03:26:57;13.90;;;10.60;;
61322;SDS011;47203;48.428;11.974;2023-04-20T03:29:10;18.65;;;11.80;;
61322;SDS011;47203;48.428;11.974;2023-04-20T03:31:15;17.45;;;12.30;;
61322;SDS011;47203;48.428;11.974;2023-04-20T03:33:23;17.52;;;12.52;;
61322;SDS011;47203;48.428;11.974;2023-04-20T03:35:29;14.85;;;11.55;;
61322;SDS011;47203;48.428;11.974;2023-04-20T03:37:34;15.43;;;10.88;;
61322;SDS011;47203;48.428;11.974;2023-04-20T03:39:40;13.20;;;10.20;;
61322;SDS011;47203;48.428;11.974;2023-04-20T03:41:45;13.63;;;10.88;;
61322;SDS011;47203;48.428;11.974;2023-04-20T03:43:49;11.88;;;9.30;;
61322;SDS011;47203;48.428;11.974;2023-04-20T03:45:54;14.25;;;10.05;;
61322;SDS011;47203;48.428;11.974;2023-04-20T03:47:59;11.77;;;9.65;;
61322;SDS011;47203;48.428;11.974;2023-04-20T03:50:07;11.70;;;8.73;;
61322;SDS011;47203;48.428;11.974;2023-04-20T03:52:13;14.65;;;9.35;;
61322;SDS011;47203;48.428;11.974;2023-04-20T03:54:18;10.23;;;8.63;;
61322;SDS011;47203;48.428;11.974;2023-04-20T03:56:23;11.60;;;8.80;;
61322;SDS011;47203;48.428;11.974;2023-04-20T03:58:29;11.70;;;7.78;;
61322;SDS011;47203;48.428;11.974;2023-04-20T04:00:40;12.18;;;7.95;;
61322;SDS011;47203;48.428;11.974;2023-04-20T04:02:47;9.65;;;6.63;;
61322;SDS011;47203;48.428;11.974;2023-04-20T04:04:58;7.95;;;6.65;;
61322;SDS011;47203;48.428;11.974;2023-04-20T04:07:06;9.32;;;6.45;;
61322;SDS011;47203;48.428;11.974;2023-04-20T04:09:13;8.43;;;6.07;;
61322;SDS011;47203;48.428;11.974;2023-04-20T04:11:19;9.57;;;6.90;;
61322;SDS011;47203;48.428;11.974;2023-04-20T04:13:26;7.60;;;6.40;;
61322;SDS011;47203;48.428;11.974;2023-04-20T04:15:33;7.18;;;5.90;;
61322;SDS011;47203;48.428;11.974;2023-04-20T04:17:43;7.50;;;6.13;;
61322;SDS011;47203;48.428;11.974;2023-04-20T04:19:48;7.88;;;5.38;;
61322;SDS011;47203;48.428;11.974;2023-04-20T04:21:54;6.88;;;4.88;;
61322;SDS011;47203;48.428;11.974;2023-04-20T04:24:02;5.28;;;4.78;;
61322;SDS011;47203;48.428;11.974;2023-04-20T04:26:26;6.53;;;4.03;;
61322;SDS011;47203;48.428;11.974;2023-04-20T04:28:32;5.80;;;4.35;;
61322;SDS011;47203;48.428;11.974;2023-04-20T04:30:49;5.18;;;4.15;;
61322;SDS011;47203;48.428;11.974;2023-04-20T04:32:55;5.70;;;4.15;;
61322;SDS011;47203;48.428;11.974;2023-04-20T04:35:01;6.63;;;4.15;;
61322;SDS011;47203;48.428;11.974;2023-04-20T04:37:07;6.47;;;4.35;;
61322;SDS011;47203;48.428;11.974;2023-04-20T04:39:19;4.50;;;3.90;;
61322;SDS011;47203;48.428;11.974;2023-04-20T04:41:32;5.25;;;4.20;;
61322;SDS011;47203;48.428;11.974;2023-04-20T04:43:49;4.97;;;4.03;;
61322;SDS011;47203;48.428;11.974;2023-04-20T04:46:04;5.30;;;3.85;;
61322;SDS011;47203;48.428;11.974;2023-04-20T04:48:10;5.30;;;4.53;;
61322;SDS011;47203;48.428;11.974;2023-04-20T04:50:16;6.28;;;4.78;;
61322;SDS011;47203;48.428;11.974;2023-04-20T04:52:22;6.60;;;4.65;;
61322;SDS011;47203;48.428;11.974;2023-04-20T04:54:30;6.82;;;4.50;;
61322;SDS011;47203;48.428;11.974;2023-04-20T04:56:35;6.90;;;4.20;;
61322;SDS011;47203;48.428;11.974;2023-04-20T04:58:40;6.40;;;4.13;;
61322;SDS011;47203;48.428;11.974;2023-04-20T05:00:45;7.65;;;5.05;;
61322;SDS011;47203;48.428;11.974;2023-04-20T05:02:50;5.93;;;4.22;;
61322;SDS011;47203;48.428;11.974;2023-04-20T05:04:56;13.63;;;4.80;;
61322;SDS011;47203;48.428;11.974;2023-04-20T05:07:01;6.53;;;4.30;;
61322;SDS011;47203;48.428;11.974;2023-04-20T05:09:06;7.50;;;5.65;;
61322;SDS011;47203;48.428;11.974;2023-04-20T05:11:13;6.82;;;4.70;;
61322;SDS011;47203;48.428;11.974;2023-04-20T05:13:18;6.22;;;4.80;;
61322;SDS011;47203;48.428;11.974;2023-04-20T05:15:23;6.80;;;4.55;;
61322;SDS011;47203;48.428;11.974;2023-04-20T05:17:28;6.57;;;4.60;;
61322;SDS011;47203;48.428;11.974;2023-04-20T05:19:33;5.95;;;4.43;;
61322;SDS011;47203;48.428;11.974;2023-04-20T05:21:37;5.72;;;4.57;;
61322;SDS011;47203;48.428;11.974;2023-04-20T05:23:42;7.35;;;4.25;;
61322;SDS011;47203;48.428;11.974;2023-04-20T05:25:49;5.90;;;4.53;;
61322;SDS011;47203;48.428;11.974;2023-04-20T05:27:57;6.05;;;3.97;;
61322;SDS011;47203;48.428;11.974;2023-04-20T05:30:02;7.22;;;4.50;;
61322;SDS011;47203;48.428;11.974;2023-04-20T05:32:21;5.88;;;4.10;;
61322;SDS011;47203;48.428;11.974;2023-04-20T05:34:26;7.18;;;5.05;;
61322;SDS011;47203;48.428;11.974;2023-04-20T05:36:31;5.30;;;4.15;;
61322;SDS011;47203;48.428;11.974;2023-04-20T05:38:37;5.72;;;4.25;;
61322;SDS011;47203;48.428;11.974;2023-04-20T05:40:42;5.40;;;4.47;;
61322;SDS011;47203;48.428;11.974;2023-04-20T05:42:46;5.35;;;4.07;;
61322;SDS011;47203;48.428;11.974;2023-04-20T05:44:55;5.05;;;3.78;;
61322;SDS011;47203;48.428;11.974;2023-04-20T05:46:59;4.28;;;3.40;;
61322;SDS011;47203;48.428;11.974;2023-04-20T05:49:06;5.70;;;4.03;;
61322;SDS011;47203;48.428;11.974;2023-04-20T05:51:11;5.60;;;3.45;;
61322;SDS011;47203;48.428;11.974;2023-04-20T05:53:16;4.50;;;3.55;;
61322;SDS011;47203;48.428;11.974;2023-04-20T05:55:22;6.07;;;4.47;;
61322;SDS011;47203;48.428;11.974;2023-04-20T05:57:27;5.13;;;4.07;;
61322;SDS011;47203;48.428;11.974;2023-04-20T05:59:32;4.90;;;4.10;;
61322;SDS011;47203;48.428;11.974;2023-04-20T06:01:39;4.18;;;3.53;;
61322;SDS011;47203;48.428;11.974;2023-04-20T06:03:44;6.45;;;4.10;;
61322;SDS011;47203;48.428;11.974;2023-04-20T06:05:50;5.85;;;4.38;;
61322;SDS011;47203;48.428;11.974;2023-04-20T06:07:54;5.70;;;4.25;;
61322;SDS011;47203;48.428;11.974;2023-04-20T06:09:59;5.45;;;4.22;;
61322;SDS011;47203;48.428;11.974;2023-04-20T06:12:05;6.35;;;4.53;;
61322;SDS011;47203;48.428;11.974;2023-04-20T06:14:10;5.80;;;4.07;;
61322;SDS011;47203;48.428;11.974;2023-04-20T06:16:15;6.75;;;3.67;;
61322;SDS011;47203;48.428;11.974;2023-04-20T06:18:22;5.18;;;3.83;;
61322;SDS011;47203;48.428;11.974;2023-04-20T06:20:27;4.78;;;4.13;;
61322;SDS011;47203;48.428;11.974;2023-04-20T06:22:32;7.75;;;5.25;;
61322;SDS011;47203;48.428;11.974;2023-04-20T06:24:37;5.55;;;4.50;;
61322;SDS011;47203;48.428;11.974;2023-04-20T06:26:42;8.43;;;5.50;;
61322;SDS011;47203;48.428;11.974;2023-04-20T06:28:47;7.78;;;5.32;;
61322;SDS011;47203;48.428;11.974;2023-04-20T06:30:53;8.25;;;5.30;;
61322;SDS011;47203;48.428;11.974;2023-04-20T06:32:58;6.55;;;4.63;;
61322;SDS011;47203;48.428;11.974;2023-04-20T06:35:06;9.20;;;5.85;;
61322;SDS011;47203;48.428;11.974;2023-04-20T06:37:11;9.18;;;6.07;;
61322;SDS011;47203;48.428;11.974;2023-04-20T06:39:16;9.18;;;6.20;;
61322;SDS011;47203;48.428;11.974;2023-04-20T06:41:21;9.23;;;6.05;;
61322;SDS011;47203;48.428;11.974;2023-04-20T06:43:26;8.18;;;5.30;;
61322;SDS011;47203;48.428;11.974;2023-04-20T06:45:32;6.20;;;4.68;;
61322;SDS011;47203;48.428;11.974;2023-04-20T06:47:37;5.80;;;4.65;;
61322;SDS011;47203;48.428;11.974;2023-04-20T06:49:42;6.38;;;4.85;;
61322;SDS011;47203;48.428;11.974;2023-04-20T06:51:49;5.32;;;4.40;;
61322;SDS011;47203;48.428;11.974;2023-04-20T06:53:54;6.28;;;4.78;;
61322;SDS011;47203;48.428;11.974;2023-04-20T06:55:59;5.80;;;4.57;;
61322;SDS011;47203;48.428;11.974;2023-04-20T06:58:04;6.15;;;4.38;;
61322;SDS011;47203;48.428;11.974;2023-04-20T07:00:09;5.80;;;4.20;;
61322;SDS011;47203;48.428;11.974;2023-04-20T07:02:15;6.97;;;4.10;;
61322;SDS011;47203;48.428;11.974;2023-04-20T07:04:20;5.68;;;3.75;;
61322;SDS011;47203;48.428;11.974;2023-04-20T07:06:25;4.97;;;3.83;;
61322;SDS011;47203;48.428;11.974;2023-04-20T07:08:33;5.15;;;3.88;;
61322;SDS011;47203;48.428;11.974;2023-04-20T07:10:37;6.63;;;4.20;;
61322;SDS011;47203;48.428;11.974;2023-04-20T07:12:42;5.57;;;4.15;;
61322;SDS011;47203;48.428;11.974;2023-04-20T07:14:48;5.05;;;4.00;;
61322;SDS011;47203;48.428;11.974;2023-04-20T07:16:53;5.95;;;3.92;;
61322;SDS011;47203;48.428;11.974;2023-04-20T07:18:58;5.32;;;4.03;;
61322;SDS011;47203;48.428;11.974;2023-04-20T07:21:03;5.05;;;3.67;;
61322;SDS011;47203;48.428;11.974;2023-04-20T07:23:08;6.65;;;4.15;;
61322;SDS011;47203;48.428;11.974;2023-04-20T07:25:15;5.22;;;3.75;;
61322;SDS011;47203;48.428;11.974;2023-04-20T07:27:21;5.80;;;4.50;;
61322;SDS011;47203;48.428;11.974;2023-04-20T07:29:26;5.95;;;4.13;;
61322;SDS011;47203;48.428;11.974;2023-04-20T07:31:34;4.70;;;3.78;;
61322;SDS011;47203;48.428;11.974;2023-04-20T07:33:39;4.80;;;3.78;;
61322;SDS011;47203;48.428;11.974;2023-04-20T07:35:44;6.10;;;4.30;;
61322;SDS011;47203;48.428;11.974;2023-04-20T07:37:48;4.90;;;3.78;;
61322;SDS011;47203;48.428;11.974;2023-04-20T07:39:53;5.63;;;4.07;;
61322;SDS011;47203;48.428;11.974;2023-04-20T07:42:01;5.90;;;4.05;;
61322;SDS011;47203;48.428;11.974;2023-04-20T07:44:06;6.75;;;4.40;;
61322;SDS011;47203;48.428;11.974;2023-04-20T07:46:18;4.90;;;3.85;;
61322;SDS011;47203;48.428;11.974;2023-04-20T07:48:23;5.75;;;4.15;;
61322;SDS011;47203;48.428;11.974;2023-04-20T07:50:28;12.98;;;9.60;;
61322;SDS011;47203;48.428;11.974;2023-04-20T07:52:33;9.35;;;6.78;;
61322;SDS011;47203;48.428;11.974;2023-04-20T07:54:37;5.65;;;4.65;;
61322;SDS011;47203;48.428;11.974;2023-04-20T07:56:42;6.80;;;4.75;;
61322;SDS011;47203;48.428;11.974;2023-04-20T07:58:50;5.82;;;4.30;;
61322;SDS011;47203;48.428;11.974;2023-04-20T08:00:55;5.63;;;4.40;;
61322;SDS011;47203;48.428;11.974;2023-04-20T08:03:00;6.10;;;4.35;;
61322;SDS011;47203;48.428;11.974;2023-04-20T08:05:05;5.85;;;4.32;;
61322;SDS011;47203;48.428;11.974;2023-04-20T08:07:12;5.10;;;4.00;;
61322;SDS011;47203;48.428;11.974;2023-04-20T08:09:17;6.68;;;4.70;;
61322;SDS011;47203;48.428;11.974;2023-04-20T08:11:22;5.63;;;4.30;;
61322;SDS011;47203;48.428;11.974;2023-04-20T08:13:27;7.00;;;4.90;;
61322;SDS011;47203;48.428;11.974;2023-04-20T08:15:35;5.97;;;4.60;;
61322;SDS011;47203;48.428;11.974;2023-04-20T08:17:40;6.32;;;4.65;;
61322;SDS011;47203;48.428;11.974;2023-04-20T08:19:45;6.00;;;4.28;;
61322;SDS011;47203;48.428;11.974;2023-04-20T08:21:50;7.20;;;5.40;;
61322;SDS011;47203;48.428;11.974;2023-04-20T08:23:55;8.43;;;5.72;;
61322;SDS011;47203;48.428;11.974;2023-04-20T08:26:00;5.47;;;4.22;;
61322;SDS011;47203;48.428;11.974;2023-04-20T08:28:05;5.95;;;4.82;;
61322;SDS011;47203;48.428;11.974;2023-04-20T08:30:25;6.60;;;4.53;;
61322;SDS011;47203;48.428;11.974;2023-04-20T08:34:41;6.10;;;4.43;;
61322;SDS011;47203;48.428;11.974;2023-04-20T08:36:46;6.68;;;4.35;;
61322;SDS011;47203;48.428;11.974;2023-04-20T08:38:52;5.80;;;4.32;;
61322;SDS011;47203;48.428;11.974;2023-04-20T08:40:58;5.22;;;4.20;;
61322;SDS011;47203;48.428;11.974;2023-04-20T08:43:03;6.15;;;4.65;;
61322;SDS011;47203;48.428;11.974;2023-04-20T08:45:07;4.45;;;3.90;;
61322;SDS011;47203;48.428;11.974;2023-04-20T08:47:13;6.95;;;4.40;;
61322;SDS011;47203;48.428;11.974;2023-04-20T08:49:20;5.88;;;4.55;;
61322;SDS011;47203;48.428;11.974;2023-04-20T08:51:25;5.40;;;4.07;;
61322;SDS011;47203;48.428;11.974;2023-04-20T08:53:31;4.65;;;3.78;;
61322;SDS011;47203;48.428;11.974;2023-04-20T08:55:36;5.35;;;4.47;;
61322;SDS011;47203;48.428;11.974;2023-04-20T08:57:41;6.20;;;4.43;;
61322;SDS011;47203;48.428;11.974;2023-04-20T08:59:46;5.18;;;4.03;;
61322;SDS011;47203;48.428;11.974;2023-04-20T09:01:51;5.45;;;4.00;;
61322;SDS011;47203;48.428;11.974;2023-04-20T09:03:57;4.45;;;3.15;;
61322;SDS011;47203;48.428;11.974;2023-04-20T09:06:12;3.83;;;3.00;;
61322;SDS011;47203;48.428;11.974;2023-04-20T09:08:18;5.05;;;3.60;;
61322;SDS011;47203;48.428;11.974;2023-04-20T09:10:23;4.95;;;4.00;;
61322;SDS011;47203;48.428;11.974;2023-04-20T09:12:38;6.25;;;4.13;;
61322;SDS011;47203;48.428;11.974;2023-04-20T09:14:45;6.18;;;3.90;;
61322;SDS011;47203;48.428;11.974;2023-04-20T09:16:52;5.75;;;3.63;;
61322;SDS011;47203;48.428;11.974;2023-04-20T09:19:02;4.95;;;3.80;;
61322;SDS011;47203;48.428;11.974;2023-04-20T09:21:12;6.93;;;4.10;;
61322;SDS011;47203;48.428;11.974;2023-04-20T09:23:19;4.22;;;3.10;;
61322;SDS011;47203;48.428;11.974;2023-04-20T09:25:24;4.28;;;3.40;;
61322;SDS011;47203;48.428;11.974;2023-04-20T09:27:29;4.85;;;3.92;;
61322;SDS011;47203;48.428;11.974;2023-04-20T09:29:34;4.60;;;3.38;;
61322;SDS011;47203;48.428;11.974;2023-04-20T09:31:39;5.50;;;3.75;;
61322;SDS011;47203;48.428;11.974;2023-04-20T09:33:44;4.40;;;3.63;;
61322;SDS011;47203;48.428;11.974;2023-04-20T09:36:01;5.80;;;3.50;;
61322;SDS011;47203;48.428;11.974;2023-04-20T09:38:11;5.10;;;3.65;;
61322;SDS011;47203;48.428;11.974;2023-04-20T09:40:19;4.97;;;3.35;;
61322;SDS011;47203;48.428;11.974;2023-04-20T09:42:27;4.47;;;3.38;;
61322;SDS011;47203;48.428;11.974;2023-04-20T09:44:36;4.80;;;3.55;;
61322;SDS011;47203;48.428;11.974;2023-04-20T09:46:42;4.65;;;3.60;;
61322;SDS011;47203;48.428;11.974;2023-04-20T09:48:47;4.63;;;3.50;;
61322;SDS011;47203;48.428;11.974;2023-04-20T09:50:53;4.35;;;3.50;;
61322;SDS011;47203;48.428;11.974;2023-04-20T09:52:59;3.85;;;3.10;;
61322;SDS011;47203;48.428;11.974;2023-04-20T09:55:08;4.55;;;3.40;;
61322;SDS011;47203;48.428;11.974;2023-04-20T09:57:14;3.85;;;3.05;;
61322;SDS011;47203;48.428;11.974;2023-04-20T09:59:19;4.40;;;3.45;;
61322;SDS011;47203;48.428;11.974;2023-04-20T10:01:24;4.03;;;3.10;;
61322;SDS011;47203;48.428;11.974;2023-04-20T10:03:34;4.30;;;3.13;;
61322;SDS011;47203;48.428;11.974;2023-04-20T10:05:39;4.05;;;2.80;;
61322;SDS011;47203;48.428;11.974;2023-04-20T10:07:43;4.32;;;3.25;;
61322;SDS011;47203;48.428;11.974;2023-04-20T10:09:48;5.07;;;3.58;;
61322;SDS011;47203;48.428;11.974;2023-04-20T10:12:08;4.97;;;3.65;;
61322;SDS011;47203;48.428;11.974;2023-04-20T10:14:15;3.92;;;3.08;;
61322;SDS011;47203;48.428;11.974;2023-04-20T10:16:21;6.05;;;3.95;;
61322;SDS011;47203;48.428;11.974;2023-04-20T10:18:27;4.80;;;3.60;;
61322;SDS011;47203;48.428;11.974;2023-04-20T10:20:31;4.95;;;3.60;;
61322;SDS011;47203;48.428;11.974;2023-04-20T10:22:37;4.55;;;3.63;;
61322;SDS011;47203;48.428;11.974;2023-04-20T10:24:42;4.90;;;4.07;;
61322;SDS011;47203;48.428;11.974;2023-04-20T10:26:47;6.10;;;3.92;;
61322;SDS011;47203;48.428;11.974;2023-04-20T10:28:54;4.78;;;3.55;;
61322;SDS011;47203;48.428;11.974;2023-04-20T10:31:02;8.40;;;5.63;;
61322;SDS011;47203;48.428;11.974;2023-04-20T10:33:09;7.38;;;5.20;;
61322;SDS011;47203;48.428;11.974;2023-04-20T10:35:15;13.25;;;6.90;;
61322;SDS011;47203;48.428;11.974;2023-04-20T10:37:20;8.45;;;5.82;;
61322;SDS011;47203;48.428;11.974;2023-04-20T10:39:25;6.53;;;4.68;;
61322;SDS011;47203;48.428;11.974;2023-04-20T10:41:33;6.35;;;4.45;;
61322;SDS011;47203;48.428;11.974;2023-04-20T10:43:38;5.38;;;4.47;;
61322;SDS011;47203;48.428;11.974;2023-04-20T10:45:46;5.13;;;4.28;;
61322;SDS011;47203;48.428;11.974;2023-04-20T10:47:52;5.72;;;4.20;;
61322;SDS011;47203;48.428;11.974;2023-04-20T10:50:07;9.18;;;4.13;;
61322;SDS011;47203;48.428;11.974;2023-04-20T10:52:13;5.53;;;4.50;;
61322;SDS011;47203;48.428;11.974;2023-04-20T10:54:18;5.80;;;3.92;;
61322;SDS011;47203;48.428;11.974;2023-04-20T10:56:23;5.40;;;3.92;;
61322;SDS011;47203;48.428;11.974;2023-04-20T10:58:28;6.20;;;4.65;;
61322;SDS011;47203;48.428;11.974;2023-04-20T11:00:33;6.30;;;4.25;;
61322;SDS011;47203;48.428;11.974;2023-04-20T11:02:46;6.93;;;4.63;;
61322;SDS011;47203;48.428;11.974;2023-04-20T11:04:52;5.40;;;4.40;;
61322;SDS011;47203;48.428;11.974;2023-04-20T11:07:05;5.97;;;4.65;;
61322;SDS011;47203;48.428;11.974;2023-04-20T11:09:17;6.03;;;4.40;;
61322;SDS011;47203;48.428;11.974;2023-04-20T11:11:24;7.18;;;4.82;;
61322;SDS011;47203;48.428;11.974;2023-04-20T11:13:30;6.80;;;4.70;;
61322;SDS011;47203;48.428;11.974;2023-04-20T11:15:36;7.22;;;5.00;;
61322;SDS011;47203;48.428;11.974;2023-04-20T11:17:41;6.20;;;5.20;;
61322;SDS011;47203;48.428;11.974;2023-04-20T11:19:50;6.90;;;4.90;;
61322;SDS011;47203;48.428;11.974;2023-04-20T11:21:55;6.35;;;5.30;;
61322;SDS011;47203;48.428;11.974;2023-04-20T11:24:00;5.80;;;4.72;;
61322;SDS011;47203;48.428;11.974;2023-04-20T11:26:05;5.72;;;4.68;;
61322;SDS011;47203;48.428;11.974;2023-04-20T11:28:10;8.07;;;5.22;;
61322;SDS011;47203;48.428;11.974;2023-04-20T11:30:14;6.10;;;4.95;;
61322;SDS011;47203;48.428;11.974;2023-04-20T11:32:20;8.93;;;4.97;;
61322;SDS011;47203;48.428;11.974;2023-04-20T11:34:25;8.40;;;6.13;;
61322;SDS011;47203;48.428;11.974;2023-04-20T11:36:37;7.53;;;5.72;;
61322;SDS011;47203;48.428;11.974;2023-04-20T11:38:42;6.78;;;5.80;;
61322;SDS011;47203;48.428;11.974;2023-04-20T11:40:47;6.68;;;5.32;;
61322;SDS011;47203;48.428;11.974;2023-04-20T11:42:52;8.40;;;6.13;;
61322;SDS011;47203;48.428;11.974;2023-04-20T11:44:57;8.48;;;6.13;;
61322;SDS011;47203;48.428;11.974;2023-04-20T11:47:02;6.85;;;5.53;;
61322;SDS011;47203;48.428;11.974;2023-04-20T11:49:07;7.88;;;5.63;;
61322;SDS011;47203;48.428;11.974;2023-04-20T11:51:12;8.18;;;6.88;;
61322;SDS011;47203;48.428;11.974;2023-04-20T11:53:20;8.85;;;6.50;;
61322;SDS011;47203;48.428;11.974;2023-04-20T11:55:25;8.35;;;6.35;;
61322;SDS011;47203;48.428;11.974;2023-04-20T11:57:30;8.90;;;6.72;;
61322;SDS011;47203;48.428;11.974;2023-04-20T11:59:35;7.85;;;6.50;;
61322;SDS011;47203;48.428;11.974;2023-04-20T12:01:40;9.27;;;6.90;;
61322;SDS011;47203;48.428;11.974;2023-04-20T12:03:44;8.65;;;6.53;;
61322;SDS011;47203;48.428;11.974;2023-04-20T12:05:50;9.02;;;6.43;;
61322;SDS011;47203;48.428;11.974;2023-04-20T12:07:55;8.05;;;6.07;;
61322;SDS011;47203;48.428;11.974;2023-04-20T12:10:03;8.25;;;6.32;;
61322;SDS011;47203;48.428;11.974;2023-04-20T12:12:08;8.00;;;5.88;;
61322;SDS011;47203;48.428;11.974;2023-04-20T12:14:13;9.20;;;6.80;;
61322;SDS011;47203;48.428;11.974;2023-04-20T12:16:18;8.77;;;6.88;;
61322;SDS011;47203;48.428;11.974;2023-04-20T12:18:23;9.32;;;6.63;;
61322;SDS011;47203;48.428;11.974;2023-04-20T12:20:28;8.82;;;6.82;;
61322;SDS011;47203;48.428;11.974;2023-04-20T12:22:33;9.50;;;7.63;;
61322;SDS011;47203;48.428;11.974;2023-04-20T12:24:38;9.25;;;7.60;;
61322;SDS011;47203;48.428;11.974;2023-04-20T12:26:45;9.30;;;7.70;;
61322;SDS011;47203;48.428;11.974;2023-04-20T12:28:50;8.95;;;6.88;;